Time;durP1;ratioP1;P1;durP2;ratioP2;P2;SDS_P1;SDS_P2;PMS_P1;PMS_P2;Temp;Humidity;BMP_temperature;BMP_pressure;BME280_temperature;BME280_humidity;BME280_pressure;Samples;Min_cycle;Max_cycle;Signal;HPM_P1;HPM_P2
2024/02/08 00:02:24;;;;;;;15.25;3.67;;;;;;;;;;4999314;28;20501;-69
2024/02/08 00:04:50;;;;;;;18.67;3.85;;;;;;;;;;4981124;28;20076;-70
2024/02/08 00:07:17;;;;;;;15.63;5.22;;;;;;;;;;4983509;28;20094;-69
2024/02/08 00:09:43;;;;;;;18.75;3.55;;;;;;;;;;4969093;28;20124;-69
2024/02/08 00:12:10;;;;;;;13.35;3.72;;;;;;;;;;4979840;28;20458;-69
2024/02/08 00:14:38;;;;;;;25.25;6.03;;;;;;;;;;4979682;28;20433;-69
2024/02/08 00:17:05;;;;;;;23.65;4.03;;;;;;;;;;4993220;28;20046;-69
2024/02/08 00:19:31;;;;;;;16.17;3.67;;;;;;;;;;4992666;28;20077;-70
2024/02/08 00:21:57;;;;;;;18.50;3.58;;;;;;;;;;4978749;28;20046;-69
2024/02/08 00:24:23;;;;;;;14.52;4.00;;;;;;;;;;4999950;28;20501;-69
2024/02/08 00:26:49;;;;;;;25.30;4.22;;;;;;;;;;4995991;28;20066;-69
2024/02/08 00:29:16;;;;;;;15.50;3.97;;;;;;;;;;4986612;28;20049;-69
2024/02/08 00:31:42;;;;;;;20.13;4.00;;;;;;;;;;4981129;28;20465;-69
2024/02/08 00:34:09;;;;;;;20.80;3.50;;;;;;;;;;4995967;28;20050;-69
2024/02/08 00:36:35;;;;;;;20.50;6.00;;;;;;;;;;4986379;28;20045;-69
2024/02/08 00:39:06;;;;;;;19.83;4.43;;;;;;;;;;4987523;28;20046;-69
2024/02/08 00:41:33;;;;;;;21.67;4.45;;;;;;;;;;4982284;28;20069;-69
2024/02/08 00:43:59;;;;;;;10.40;3.28;;;;;;;;;;4976169;28;20054;-69
2024/02/08 00:46:25;;;;;;;12.68;3.60;;;;;;;;;;4985312;28;20062;-69
2024/02/08 00:48:54;;;;;;;12.60;3.75;;;;;;;;;;4978124;28;20383;-69
2024/02/08 00:51:21;;;;;;;15.05;3.70;;;;;;;;;;4975277;28;20046;-69
2024/02/08 00:53:48;;;;;;;12.20;3.30;;;;;;;;;;4979894;28;20046;-69
2024/02/08 00:56:15;;;;;;;20.65;3.72;;;;;;;;;;4977757;28;20663;-70
2024/02/08 00:58:41;;;;;;;19.13;3.95;;;;;;;;;;4994611;28;20096;-69
2024/02/08 01:01:07;;;;;;;15.55;3.35;;;;;;;;;;4992292;28;20419;-69
2024/02/08 01:03:36;;;;;;;20.50;4.15;;;;;;;;;;4991842;28;20088;-69
2024/02/08 01:06:02;;;;;;;14.02;3.47;;;;;;;;;;4995794;28;20136;-69
2024/02/08 01:08:29;;;;;;;16.55;4.55;;;;;;;;;;4990373;28;20042;-69
2024/02/08 01:10:55;;;;;;;13.85;3.22;;;;;;;;;;4987019;28;20069;-69
2024/02/08 01:13:24;;;;;;;13.93;3.30;;;;;;;;;;4980072;28;20049;-69
2024/02/08 01:15:50;;;;;;;16.95;5.32;;;;;;;;;;4980257;28;20090;-70
2024/02/08 01:18:17;;;;;;;15.50;3.55;;;;;;;;;;4978120;28;20725;-69
2024/02/08 01:20:44;;;;;;;10.80;3.50;;;;;;;;;;4986018;28;20455;-69
2024/02/08 01:23:10;;;;;;;22.08;4.22;;;;;;;;;;4979415;28;20180;-69
2024/02/08 01:25:36;;;;;;;18.08;4.70;;;;;;;;;;4985719;28;20041;-69
2024/02/08 01:28:03;;;;;;;14.38;4.07;;;;;;;;;;4981649;28;20050;-69
2024/02/08 01:30:29;;;;;;;13.60;3.33;;;;;;;;;;4980620;28;20116;-69
2024/02/08 01:32:56;;;;;;;23.73;3.17;;;;;;;;;;4989779;28;20058;-69
2024/02/08 01:35:22;;;;;;;16.02;3.30;;;;;;;;;;4963751;28;20081;-69
2024/02/08 01:37:49;;;;;;;17.42;3.70;;;;;;;;;;4990203;28;20058;-70
2024/02/08 01:40:16;;;;;;;10.00;3.15;;;;;;;;;;4976253;28;20045;-69
2024/02/08 01:42:43;;;;;;;14.43;2.85;;;;;;;;;;4984956;28;20046;-69
2024/02/08 01:45:29;;;;;;;13.85;3.53;;;;;;;;;;4979948;28;20038;-69
2024/02/08 01:47:57;;;;;;;21.30;4.20;;;;;;;;;;4983067;28;20050;-69
2024/02/08 01:50:23;;;;;;;17.65;3.45;;;;;;;;;;4976164;28;20048;-69
2024/02/08 01:52:50;;;;;;;9.45;2.60;;;;;;;;;;4983511;28;20605;-69
2024/02/08 01:55:18;;;;;;;12.60;2.97;;;;;;;;;;4992202;28;20146;-69
2024/02/08 01:57:44;;;;;;;14.05;2.85;;;;;;;;;;4981163;28;20049;-69
2024/02/08 02:00:12;;;;;;;11.48;4.00;;;;;;;;;;4980035;28;20434;-69
2024/02/08 02:02:41;;;;;;;18.98;3.75;;;;;;;;;;4984199;28;20054;-69
2024/02/08 02:05:17;;;;;;;19.73;3.05;;;;;;;;;;4983378;28;20050;-69
2024/02/08 02:07:48;;;;;;;19.00;4.05;;;;;;;;;;4978278;28;20046;-69
2024/02/08 02:10:15;;;;;;;11.63;4.65;;;;;;;;;;4998179;28;20041;-69
2024/02/08 02:12:44;;;;;;;18.02;4.18;;;;;;;;;;4966268;28;20510;-69
2024/02/08 02:15:10;;;;;;;16.08;3.60;;;;;;;;;;4972784;28;20116;-69
2024/02/08 02:17:36;;;;;;;18.67;3.78;;;;;;;;;;4991161;28;20115;-69
2024/02/08 02:20:05;;;;;;;20.55;3.40;;;;;;;;;;4978640;28;20046;-69
2024/02/08 02:22:34;;;;;;;14.88;3.10;;;;;;;;;;4978042;28;20053;-69
2024/02/08 02:25:00;;;;;;;15.85;3.55;;;;;;;;;;4970639;28;20149;-69
2024/02/08 02:27:27;;;;;;;11.98;3.22;;;;;;;;;;4971478;28;20153;-69
2024/02/08 02:29:54;;;;;;;13.55;3.38;;;;;;;;;;4979432;28;20741;-69
2024/02/08 02:32:21;;;;;;;15.90;2.92;;;;;;;;;;4979400;28;20089;-69
2024/02/08 02:34:51;;;;;;;24.33;3.70;;;;;;;;;;4981897;28;20058;-70
2024/02/08 02:37:18;;;;;;;14.50;3.75;;;;;;;;;;4994209;28;20076;-69
2024/02/08 02:39:45;;;;;;;19.40;3.45;;;;;;;;;;5002073;28;20137;-69
2024/02/08 02:42:12;;;;;;;20.98;4.93;;;;;;;;;;4993064;28;20107;-69
2024/02/08 02:44:38;;;;;;;15.18;2.85;;;;;;;;;;4998174;28;20046;-69
2024/02/08 02:47:04;;;;;;;15.93;3.88;;;;;;;;;;4983590;28;20057;-70
2024/02/08 02:49:36;;;;;;;15.40;3.40;;;;;;;;;;4978336;28;20046;-69
2024/02/08 02:52:07;;;;;;;16.48;4.25;;;;;;;;;;4990170;28;20069;-69
2024/02/08 02:54:34;;;;;;;18.35;3.53;;;;;;;;;;5009459;28;20065;-69
2024/02/08 02:57:00;;;;;;;18.30;3.20;;;;;;;;;;4983621;28;20117;-69
2024/02/08 02:59:30;;;;;;;11.30;3.80;;;;;;;;;;4988877;28;20085;-69
2024/02/08 03:01:56;;;;;;;11.38;3.20;;;;;;;;;;4987870;28;20057;-69
2024/02/08 03:04:23;;;;;;;17.35;4.05;;;;;;;;;;4985304;28;20088;-69
2024/02/08 03:06:53;;;;;;;15.27;5.05;;;;;;;;;;4988129;28;20069;-69
2024/02/08 03:09:27;;;;;;;13.52;2.90;;;;;;;;;;4986848;28;20881;-70
2024/02/08 03:11:54;;;;;;;19.27;3.47;;;;;;;;;;4982872;28;20368;-69
2024/02/08 03:14:22;;;;;;;12.80;2.92;;;;;;;;;;4982764;28;20054;-69
2024/02/08 03:16:48;;;;;;;17.55;3.78;;;;;;;;;;4987713;28;20418;-69
2024/02/08 03:19:15;;;;;;;17.85;3.20;;;;;;;;;;4985048;28;20749;-69
2024/02/08 03:21:42;;;;;;;14.32;2.40;;;;;;;;;;4987631;28;20103;-69
2024/02/08 03:24:08;;;;;;;12.32;3.75;;;;;;;;;;4984745;28;20046;-69
2024/02/08 03:26:40;;;;;;;13.60;3.53;;;;;;;;;;4985959;28;20050;-69
2024/02/08 03:29:11;;;;;;;15.68;3.92;;;;;;;;;;4982978;28;20068;-69
2024/02/08 03:31:45;;;;;;;19.65;4.25;;;;;;;;;;4986977;28;20557;-69
2024/02/08 03:34:16;;;;;;;17.85;3.28;;;;;;;;;;5000356;28;20511;-69
2024/02/08 03:36:44;;;;;;;23.25;4.32;;;;;;;;;;4984467;28;20474;-69
2024/02/08 03:39:24;;;;;;;10.75;3.42;;;;;;;;;;5002955;28;20050;-70
2024/02/08 03:41:52;;;;;;;11.43;3.67;;;;;;;;;;4989469;28;20117;-69
2024/02/08 03:44:21;;;;;;;13.60;3.80;;;;;;;;;;4998904;28;20096;-69
2024/02/08 03:46:49;;;;;;;16.88;3.17;;;;;;;;;;4984862;28;20054;-69
2024/02/08 03:49:15;;;;;;;18.73;5.10;;;;;;;;;;4979838;28;20042;-69
2024/02/08 03:51:42;;;;;;;18.33;3.03;;;;;;;;;;4996056;28;20128;-69
2024/02/08 03:54:08;;;;;;;15.32;4.10;;;;;;;;;;4986453;28;20103;-69
2024/02/08 03:56:38;;;;;;;15.20;3.35;;;;;;;;;;4986806;28;20188;-69
2024/02/08 03:59:11;;;;;;;10.85;3.08;;;;;;;;;;4974943;28;20038;-69
2024/02/08 04:01:43;;;;;;;19.95;3.67;;;;;;;;;;4976122;28;20494;-69
2024/02/08 04:04:15;;;;;;;16.88;4.57;;;;;;;;;;4979838;28;20513;-69
2024/02/08 04:07:11;;;;;;;21.27;4.35;;;;;;;;;;4998078;28;20124;-69
2024/02/08 04:09:37;;;;;;;16.05;3.70;;;;;;;;;;4982077;28;20046;-69
2024/02/08 04:53:38;;;;;;;17.27;3.50;;;;;;;;;;4973270;28;20046;-69
2024/02/08 04:56:08;;;;;;;20.73;3.57;;;;;;;;;;4966763;28;20083;-69
2024/02/08 04:58:37;;;;;;;19.33;3.92;;;;;;;;;;4993757;28;20797;-69
2024/02/08 05:01:03;;;;;;;15.35;4.63;;;;;;;;;;4996328;28;20691;-69
2024/02/08 05:03:30;;;;;;;13.80;4.40;;;;;;;;;;4983174;28;20039;-69
2024/02/08 05:05:57;;;;;;;17.00;4.40;;;;;;;;;;4984166;28;20501;-69
2024/02/08 05:08:24;;;;;;;12.98;3.60;;;;;;;;;;4982325;28;20046;-69
2024/02/08 05:10:52;;;;;;;15.45;3.42;;;;;;;;;;4979973;28;20050;-69
2024/02/08 05:13:24;;;;;;;21.70;4.72;;;;;;;;;;4973164;28;20145;-69
2024/02/08 05:15:51;;;;;;;21.98;3.60;;;;;;;;;;4991454;28;20397;-69
2024/02/08 05:18:21;;;;;;;18.20;3.45;;;;;;;;;;4980948;28;20508;-69
2024/02/08 05:20:48;;;;;;;14.07;3.85;;;;;;;;;;4991512;28;20033;-69
2024/02/08 05:23:14;;;;;;;11.95;4.43;;;;;;;;;;4978776;28;20088;-69
2024/02/08 05:25:44;;;;;;;15.13;5.10;;;;;;;;;;4982541;28;20042;-69
2024/02/08 05:28:12;;;;;;;17.25;4.40;;;;;;;;;;4978949;28;20134;-69
2024/02/08 05:30:38;;;;;;;19.92;6.57;;;;;;;;;;4977623;28;20042;-69
2024/02/08 05:33:05;;;;;;;20.02;7.22;;;;;;;;;;4978181;28;20058;-69
2024/02/08 05:35:32;;;;;;;17.35;6.43;;;;;;;;;;4972234;28;20439;-69
2024/02/08 05:38:00;;;;;;;19.65;7.13;;;;;;;;;;4960693;28;20388;-69
2024/02/08 05:40:30;;;;;;;19.60;6.63;;;;;;;;;;4981836;28;20046;-69
2024/02/08 05:42:57;;;;;;;24.52;7.20;;;;;;;;;;4981790;28;20413;-69
2024/02/08 05:45:30;;;;;;;14.43;5.80;;;;;;;;;;4975980;28;20556;-69
2024/02/08 05:48:05;;;;;;;26.85;6.65;;;;;;;;;;4993698;28;20165;-69
2024/02/08 05:50:33;;;;;;;18.20;5.78;;;;;;;;;;4980255;28;20052;-69
2024/02/08 05:53:06;;;;;;;19.48;5.72;;;;;;;;;;4980937;28;20486;-69
2024/02/08 05:55:34;;;;;;;20.45;6.07;;;;;;;;;;4984414;28;20046;-69
2024/02/08 05:58:03;;;;;;;18.90;5.63;;;;;;;;;;4963626;28;20081;-69
2024/02/08 06:00:32;;;;;;;20.70;5.82;;;;;;;;;;4978528;28;20037;-69
2024/02/08 06:03:03;;;;;;;24.27;6.22;;;;;;;;;;4989864;28;20065;-69
2024/02/08 06:05:31;;;;;;;18.98;5.57;;;;;;;;;;4978529;28;20121;-69
2024/02/08 06:07:58;;;;;;;16.38;6.65;;;;;;;;;;4977882;28;20078;-69
2024/02/08 06:10:41;;;;;;;20.90;6.75;;;;;;;;;;4979777;28;20056;-70
2024/02/08 06:13:13;;;;;;;16.55;7.18;;;;;;;;;;4991816;28;20057;-69
2024/02/08 06:15:42;;;;;;;16.25;6.50;;;;;;;;;;4981524;28;20046;-69
2024/02/08 06:18:13;;;;;;;20.52;6.10;;;;;;;;;;4975831;28;20069;-69
2024/02/08 06:20:40;;;;;;;30.42;9.40;;;;;;;;;;4989676;28;20046;-69
2024/02/08 06:23:16;;;;;;;26.90;7.65;;;;;;;;;;4979122;28;20088;-69
2024/02/08 06:25:45;;;;;;;25.00;7.13;;;;;;;;;;4981536;28;20048;-69
2024/02/08 06:28:12;;;;;;;26.42;7.38;;;;;;;;;;4975054;28;20410;-69
2024/02/08 06:30:46;;;;;;;20.45;6.90;;;;;;;;;;4988894;28;20042;-69
2024/02/08 06:33:25;;;;;;;33.83;8.32;;;;;;;;;;4987049;28;20050;-70
2024/02/08 06:35:56;;;;;;;17.13;7.40;;;;;;;;;;4987621;28;20120;-69
2024/02/08 06:38:40;;;;;;;20.40;7.38;;;;;;;;;;4985030;28;20423;-69
2024/02/08 06:41:09;;;;;;;;;;;;;;;;;;4977404;28;20076;-69
2024/02/08 06:43:56;;;;;;;21.70;6.68;;;;;;;;;;4995794;28;19982;-70
2024/02/08 06:46:39;;;;;;;18.45;7.13;;;;;;;;;;4980725;28;20124;-69
2024/02/08 07:41:53;;;;;;;25.42;6.97;;;;;;;;;;4994507;28;20175;-69
2024/02/08 07:44:22;;;;;;;16.08;6.40;;;;;;;;;;4995312;28;20050;-69
2024/02/08 07:46:51;;;;;;;21.40;7.45;;;;;;;;;;4994256;28;20422;-68
2024/02/08 07:49:17;;;;;;;25.92;7.53;;;;;;;;;;4988985;28;20065;-69
2024/02/08 07:51:50;;;;;;;21.20;6.75;;;;;;;;;;4990866;28;20053;-70
2024/02/08 07:54:20;;;;;;;22.23;6.82;;;;;;;;;;4973373;28;20038;-69
2024/02/08 07:56:47;;;;;;;27.17;8.10;;;;;;;;;;4995432;28;20105;-69
2024/02/08 07:59:16;;;;;;;20.75;6.20;;;;;;;;;;4993264;28;21281;-71
2024/02/08 08:01:49;;;;;;;15.02;6.88;;;;;;;;;;5001130;28;20069;-70
2024/02/08 08:04:41;;;;;;;21.73;6.95;;;;;;;;;;4988125;28;20053;-70
2024/02/08 08:07:03;;;;;;;18.35;7.53;;;;;;;;;;4984797;28;20398;-70
2024/02/08 08:09:29;;;;;;;23.52;7.43;;;;;;;;;;4989029;28;20141;-70
2024/02/08 08:11:55;;;;;;;17.30;6.80;;;;;;;;;;4987094;28;20038;-70
2024/02/08 08:17:08;;;;;;;21.65;7.10;;;;;;;;;;4996402;28;20045;-70
2024/02/08 08:19:40;;;;;;;23.23;8.88;;;;;;;;;;4996554;28;20089;-70
2024/02/08 08:22:50;;;;;;;22.73;6.90;;;;;;;;;;4996601;28;20053;-69
2024/02/08 08:27:47;;;;;;;18.98;6.82;;;;;;;;;;4985090;28;20054;-68
2024/02/08 08:30:27;;;;;;;25.60;7.70;;;;;;;;;;4994503;28;20046;-68
2024/02/08 08:33:08;;;;;;;21.13;8.07;;;;;;;;;;4994300;28;20494;-68
2024/02/08 08:40:49;;;;;;;23.75;8.00;;;;;;;;;;4991196;28;20220;-68
2024/02/08 08:43:24;;;;;;;25.42;7.95;;;;;;;;;;4983264;28;20042;-68
2024/02/08 08:45:51;;;;;;;29.55;8.07;;;;;;;;;;4997781;28;20042;-68
2024/02/08 08:48:19;;;;;;;27.83;9.55;;;;;;;;;;4973930;28;20042;-68
2024/02/08 08:50:50;;;;;;;22.05;8.93;;;;;;;;;;4970161;28;20042;-68
2024/02/08 08:53:19;;;;;;;27.25;9.68;;;;;;;;;;4985181;28;20050;-68
2024/02/08 08:55:50;;;;;;;28.17;7.63;;;;;;;;;;4988462;28;20045;-68
2024/02/08 08:58:22;;;;;;;28.52;9.25;;;;;;;;;;4988306;28;20519;-68
2024/02/08 09:00:58;;;;;;;22.65;6.97;;;;;;;;;;4991759;28;20366;-68
2024/02/08 09:03:26;;;;;;;25.95;6.97;;;;;;;;;;4987728;28;20428;-68
2024/02/08 09:05:57;;;;;;;22.10;5.75;;;;;;;;;;4990098;28;20324;-68
2024/02/08 09:08:33;;;;;;;16.75;6.10;;;;;;;;;;4997097;28;20089;-68
2024/02/08 09:11:00;;;;;;;22.13;6.30;;;;;;;;;;4989064;28;20038;-68
2024/02/08 09:13:26;;;;;;;22.30;6.57;;;;;;;;;;4994930;28;20049;-68
2024/02/08 09:16:29;;;;;;;14.40;5.05;;;;;;;;;;4986667;28;20049;-68
2024/02/08 09:21:26;;;;;;;;;;;;;;;;;;4980819;28;20060;-68
2024/02/08 09:23:53;;;;;;;20.65;5.68;;;;;;;;;;4982610;28;20000;-68
2024/02/08 09:26:24;;;;;;;18.63;5.13;;;;;;;;;;4987177;28;20502;-68
2024/02/08 09:28:52;;;;;;;16.55;5.07;;;;;;;;;;4993677;28;20046;-68
2024/02/08 09:31:18;;;;;;;19.98;4.90;;;;;;;;;;4986093;28;20058;-68
2024/02/08 09:33:44;;;;;;;15.93;5.47;;;;;;;;;;4983181;28;20251;-68
2024/02/08 09:36:17;;;;;;;18.20;5.78;;;;;;;;;;4985483;28;20061;-68
2024/02/08 09:38:44;;;;;;;36.58;6.50;;;;;;;;;;4972690;28;20142;-68
2024/02/08 09:41:15;;;;;;;15.32;6.53;;;;;;;;;;4986770;28;20058;-69
2024/02/08 09:43:44;;;;;;;21.90;4.68;;;;;;;;;;4984439;28;20401;-68
2024/02/08 09:46:28;;;;;;;17.88;4.22;;;;;;;;;;4983084;28;20038;-69
2024/02/08 09:48:57;;;;;;;18.25;4.90;;;;;;;;;;4997603;28;20112;-68
2024/02/08 09:51:24;;;;;;;22.30;4.75;;;;;;;;;;4980919;28;20433;-69
2024/02/08 09:53:52;;;;;;;16.20;4.55;;;;;;;;;;4985150;28;20057;-68
2024/02/08 09:56:35;;;;;;;12.43;4.28;;;;;;;;;;5000993;28;20064;-68
2024/02/08 09:59:07;;;;;;;18.45;4.75;;;;;;;;;;4983560;28;20050;-68
2024/02/08 10:01:42;;;;;;;21.15;4.72;;;;;;;;;;5002838;28;20567;-68
2024/02/08 10:04:16;;;;;;;21.70;4.53;;;;;;;;;;4996046;28;20038;-68
2024/02/08 10:07:06;;;;;;;14.65;4.35;;;;;;;;;;4997259;28;20422;-68
2024/02/08 10:09:35;;;;;;;18.42;5.05;;;;;;;;;;4983648;28;20402;-70
2024/02/08 10:12:18;;;;;;;19.45;4.65;;;;;;;;;;4978811;28;20494;-69
2024/02/08 10:14:50;;;;;;;25.48;5.88;;;;;;;;;;4982984;28;20054;-69
2024/02/08 10:17:18;;;;;;;14.27;4.40;;;;;;;;;;4981066;28;20058;-69
2024/02/08 10:22:53;;;;;;;16.67;4.55;;;;;;;;;;4992419;28;20168;-69
2024/02/08 10:28:21;;;;;;;19.92;4.82;;;;;;;;;;4981797;28;20149;-70
2024/02/08 10:30:59;;;;;;;14.27;4.28;;;;;;;;;;4981244;28;20092;-71
2024/02/08 10:33:25;;;;;;;15.20;5.00;;;;;;;;;;4989911;28;20407;-69
2024/02/08 10:35:53;;;;;;;17.85;5.47;;;;;;;;;;4979153;28;20101;-70
2024/02/08 10:38:29;;;;;;;17.55;5.78;;;;;;;;;;4970894;28;20448;-70
2024/02/08 10:40:59;;;;;;;13.77;3.45;;;;;;;;;;4960772;28;20048;-70
2024/02/08 10:43:25;;;;;;;18.10;4.00;;;;;;;;;;4973036;28;20097;-72
2024/02/08 10:45:53;;;;;;;20.25;3.50;;;;;;;;;;4975328;28;20046;-70
2024/02/08 10:48:21;;;;;;;21.27;4.60;;;;;;;;;;4993108;28;20051;-72
2024/02/08 10:50:49;;;;;;;21.08;4.75;;;;;;;;;;4982662;28;20042;-72
2024/02/08 10:53:39;;;;;;;18.10;4.75;;;;;;;;;;4966792;28;20064;-71
2024/02/08 10:56:13;;;;;;;20.30;4.90;;;;;;;;;;4980776;28;20049;-72
2024/02/08 10:58:55;;;;;;;23.73;5.85;;;;;;;;;;4983502;28;20081;-71
2024/02/08 11:01:37;;;;;;;22.20;4.60;;;;;;;;;;4972667;28;20224;-78
2024/02/08 11:04:17;;;;;;;15.93;4.55;;;;;;;;;;4976871;28;20093;-70
2024/02/08 11:06:55;;;;;;;22.13;4.80;;;;;;;;;;4976485;28;20097;-71
2024/02/08 11:09:27;;;;;;;15.10;3.63;;;;;;;;;;4975968;28;20054;-70
2024/02/08 11:11:59;;;;;;;11.50;3.60;;;;;;;;;;4978077;28;20649;-70
2024/02/08 11:14:27;;;;;;;16.15;3.72;;;;;;;;;;4974712;28;21496;-71
2024/02/08 11:16:53;;;;;;;16.98;3.78;;;;;;;;;;4982477;28;20038;-71
2024/02/08 11:19:20;;;;;;;14.90;4.32;;;;;;;;;;4984641;28;20050;-71
2024/02/08 11:21:49;;;;;;;22.08;4.95;;;;;;;;;;4983470;28;20096;-71
2024/02/08 11:24:27;;;;;;;12.40;4.22;;;;;;;;;;4976591;28;20128;-71
2024/02/08 11:26:57;;;;;;;14.80;3.75;;;;;;;;;;4980962;28;20047;-71
2024/02/08 11:29:26;;;;;;;26.58;3.92;;;;;;;;;;4978207;28;20058;-70
2024/02/08 11:31:55;;;;;;;18.25;3.67;;;;;;;;;;4979931;28;20042;-71
2024/02/08 11:34:24;;;;;;;19.10;4.30;;;;;;;;;;4983724;28;20108;-71
2024/02/08 11:36:52;;;;;;;20.08;4.75;;;;;;;;;;4992093;28;20419;-76
2024/02/08 11:39:27;;;;;;;16.65;3.60;;;;;;;;;;4979331;28;20042;-71
2024/02/08 11:41:57;;;;;;;20.98;3.88;;;;;;;;;;4982323;28;20046;-71
2024/02/08 11:44:25;;;;;;;19.80;3.55;;;;;;;;;;4994472;28;20050;-71
2024/02/08 11:46:58;;;;;;;18.80;3.88;;;;;;;;;;4997578;28;20164;-71
2024/02/08 11:49:31;;;;;;;12.93;2.83;;;;;;;;;;4987775;28;20056;-70
2024/02/08 11:52:06;;;;;;;19.98;2.92;;;;;;;;;;4983671;28;20045;-67
2024/02/08 11:54:37;;;;;;;15.50;3.58;;;;;;;;;;4994181;28;20042;-66
2024/02/08 11:57:05;;;;;;;17.15;3.53;;;;;;;;;;4997075;28;20054;-66
2024/02/08 11:59:39;;;;;;;15.05;3.65;;;;;;;;;;4984049;28;20050;-67
2024/02/08 12:02:08;;;;;;;20.38;4.38;;;;;;;;;;4992092;28;20594;-66
2024/02/08 12:04:36;;;;;;;16.13;3.63;;;;;;;;;;4992572;28;20038;-68
2024/02/08 12:07:04;;;;;;;28.23;5.25;;;;;;;;;;4984396;28;20038;-68
2024/02/08 12:09:31;;;;;;;14.98;4.32;;;;;;;;;;4982159;28;20111;-69
2024/02/08 12:11:59;;;;;;;14.65;3.92;;;;;;;;;;4981058;28;20035;-68
2024/02/08 12:14:26;;;;;;;16.63;3.20;;;;;;;;;;4983054;28;20141;-66
2024/02/08 12:16:57;;;;;;;16.08;3.28;;;;;;;;;;4991333;28;20649;-66
2024/02/08 12:19:24;;;;;;;16.13;2.80;;;;;;;;;;4981729;28;20479;-67
2024/02/08 12:21:58;;;;;;;15.38;3.55;;;;;;;;;;4974608;28;20410;-66
2024/02/08 12:24:25;;;;;;;16.80;3.22;;;;;;;;;;4989834;28;20042;-67
2024/02/08 12:26:54;;;;;;;17.40;3.35;;;;;;;;;;4982318;28;20065;-67
2024/02/08 12:29:20;;;;;;;17.35;4.03;;;;;;;;;;4976622;28;20060;-67
2024/02/08 12:31:48;;;;;;;21.00;4.10;;;;;;;;;;4963977;28;20046;-67
2024/02/08 12:34:15;;;;;;;14.00;3.42;;;;;;;;;;4990282;28;20451;-67
2024/02/08 12:36:44;;;;;;;23.38;3.72;;;;;;;;;;4983196;28;20370;-68
2024/02/08 12:39:19;;;;;;;14.27;3.72;;;;;;;;;;4969247;28;20108;-67
2024/02/08 12:41:46;;;;;;;19.08;3.83;;;;;;;;;;4976220;28;20384;-67
2024/02/08 12:44:14;;;;;;;19.33;4.50;;;;;;;;;;4990480;28;20046;-67
2024/02/08 12:46:42;;;;;;;11.35;3.50;;;;;;;;;;4974536;28;20046;-67
2024/02/08 12:49:09;;;;;;;14.88;3.55;;;;;;;;;;4981762;28;20117;-67
2024/02/08 12:51:36;;;;;;;17.17;3.78;;;;;;;;;;4973072;28;20043;-67
2024/02/08 12:54:04;;;;;;;26.35;4.03;;;;;;;;;;4982044;28;20042;-67
2024/02/08 12:56:30;;;;;;;12.13;4.50;;;;;;;;;;4991258;28;20433;-67
2024/02/08 12:59:00;;;;;;;19.58;4.00;;;;;;;;;;4973681;28;20042;-67
2024/02/08 13:01:34;;;;;;;13.60;3.45;;;;;;;;;;4974047;28;20068;-67
2024/02/08 13:04:00;;;;;;;21.40;3.70;;;;;;;;;;4983426;28;20043;-67
2024/02/08 13:06:27;;;;;;;21.88;3.70;;;;;;;;;;4993220;28;20081;-67
2024/02/08 13:09:16;;;;;;;22.23;4.30;;;;;;;;;;4989595;28;20141;-67
2024/02/08 13:11:44;;;;;;;16.35;3.58;;;;;;;;;;4992813;28;20050;-67
2024/02/08 13:14:14;;;;;;;12.52;2.90;;;;;;;;;;4993262;28;20109;-67
2024/02/08 13:16:40;;;;;;;18.90;2.83;;;;;;;;;;4990639;28;20058;-67
2024/02/08 13:19:13;;;;;;;14.45;2.63;;;;;;;;;;4979924;28;20101;-67
2024/02/08 13:21:44;;;;;;;12.02;2.55;;;;;;;;;;4988909;28;20050;-67
2024/02/08 13:24:11;;;;;;;6.88;1.70;;;;;;;;;;4958166;28;20081;-67
2024/02/08 13:26:37;;;;;;;7.82;2.03;;;;;;;;;;4974598;28;20042;-67
2024/02/08 13:29:04;;;;;;;4.30;1.10;;;;;;;;;;4964462;28;20056;-67
2024/02/08 13:31:30;;;;;;;5.70;0.90;;;;;;;;;;4988842;28;20101;-67
2024/02/08 13:33:56;;;;;;;7.53;1.15;;;;;;;;;;4989250;28;20479;-67
2024/02/08 13:36:25;;;;;;;5.95;1.35;;;;;;;;;;4981555;28;20498;-67
2024/02/08 13:38:51;;;;;;;4.32;0.85;;;;;;;;;;4987910;28;20050;-67
2024/02/08 13:41:18;;;;;;;8.63;1.38;;;;;;;;;;4995839;28;20053;-67
2024/02/08 13:43:48;;;;;;;7.72;1.75;;;;;;;;;;4982412;28;20050;-67
2024/02/08 13:46:15;;;;;;;7.68;1.38;;;;;;;;;;4997189;28;20445;-66
2024/02/08 13:48:41;;;;;;;8.50;1.40;;;;;;;;;;4975554;28;20366;-67
2024/02/08 13:51:08;;;;;;;7.22;2.45;;;;;;;;;;4992366;28;20046;-67
2024/02/08 13:53:35;;;;;;;10.82;1.65;;;;;;;;;;4991429;28;20046;-67
2024/02/08 13:56:07;;;;;;;8.70;1.25;;;;;;;;;;4997839;28;20072;-67
2024/02/08 13:58:36;;;;;;;14.43;2.08;;;;;;;;;;4983429;28;20049;-66
2024/02/08 14:01:03;;;;;;;12.82;1.45;;;;;;;;;;4994076;28;20553;-67
2024/02/08 14:03:29;;;;;;;10.25;1.52;;;;;;;;;;4981319;28;20053;-66
2024/02/08 14:05:55;;;;;;;16.52;2.45;;;;;;;;;;4990278;28;20042;-67
2024/02/08 14:08:27;;;;;;;11.90;2.20;;;;;;;;;;4983754;28;20044;-66
2024/02/08 14:10:54;;;;;;;11.68;1.88;;;;;;;;;;4991412;28;20049;-67
2024/02/08 14:13:32;;;;;;;14.10;1.92;;;;;;;;;;4978875;28;20053;-66
2024/02/08 14:16:13;;;;;;;9.95;1.50;;;;;;;;;;4981951;28;20072;-66
2024/02/08 14:18:39;;;;;;;8.95;1.48;;;;;;;;;;4982715;28;20406;-67
2024/02/08 14:21:08;;;;;;;15.85;4.47;;;;;;;;;;4981928;28;20054;-67
2024/02/08 14:23:37;;;;;;;7.53;1.65;;;;;;;;;;4993919;28;20054;-66
2024/02/08 14:28:38;;;;;;;6.03;1.60;;;;;;;;;;4974267;28;20053;-67
2024/02/08 14:31:08;;;;;;;7.63;1.23;;;;;;;;;;4991790;28;20049;-66
2024/02/08 14:33:35;;;;;;;6.28;1.00;;;;;;;;;;4978247;28;20465;-66
2024/02/08 14:36:09;;;;;;;7.32;1.27;;;;;;;;;;4981647;28;20050;-67
2024/02/08 14:38:40;;;;;;;4.55;1.25;;;;;;;;;;4999501;28;20572;-71
2024/02/08 14:41:06;;;;;;;7.88;1.48;;;;;;;;;;4967849;28;20157;-66
2024/02/08 14:43:33;;;;;;;7.18;1.13;;;;;;;;;;4965966;28;20092;-65
2024/02/08 14:46:00;;;;;;;6.57;1.50;;;;;;;;;;4985790;28;20034;-66
2024/02/08 14:48:27;;;;;;;10.45;1.80;;;;;;;;;;4993297;28;20141;-66
2024/02/08 14:50:58;;;;;;;8.73;1.45;;;;;;;;;;4977386;28;20466;-66
2024/02/08 14:53:25;;;;;;;8.38;2.08;;;;;;;;;;4994364;28;20050;-66
2024/02/08 14:55:54;;;;;;;6.68;1.55;;;;;;;;;;4985048;28;21130;-66
2024/02/08 14:58:33;;;;;;;9.25;1.70;;;;;;;;;;4988895;28;20124;-66
2024/02/08 15:01:08;;;;;;;4.97;2.10;;;;;;;;;;4987188;28;20092;-66
2024/02/08 15:03:38;;;;;;;8.43;1.52;;;;;;;;;;4994764;28;20046;-66
2024/02/08 15:06:05;;;;;;;14.80;2.05;;;;;;;;;;5005823;28;20049;-66
2024/02/08 15:08:46;;;;;;;9.52;3.15;;;;;;;;;;4966511;28;20042;-66
2024/02/08 15:14:02;;;;;;;6.60;1.45;;;;;;;;;;4984132;28;20066;-66
2024/02/08 15:16:31;;;;;;;11.73;2.40;;;;;;;;;;4989528;28;20059;-66
2024/02/08 15:18:57;;;;;;;8.05;3.08;;;;;;;;;;4974766;28;20394;-66
2024/02/08 15:21:24;;;;;;;6.43;1.98;;;;;;;;;;4986659;28;20307;-66
2024/02/08 15:24:18;;;;;;;15.63;5.38;;;;;;;;;;4984318;28;20042;-66
2024/02/08 15:26:44;;;;;;;7.85;4.22;;;;;;;;;;4978584;28;20154;-66
2024/02/08 15:29:30;;;;;;;8.63;2.53;;;;;;;;;;4987889;28;20056;-66
2024/02/08 15:32:01;;;;;;;10.38;2.60;;;;;;;;;;4995307;28;20056;-66
2024/02/08 15:34:42;;;;;;;11.02;2.17;;;;;;;;;;4986883;28;20053;-66
2024/02/08 15:37:28;;;;;;;8.00;2.60;;;;;;;;;;4985897;28;20128;-66
2024/02/08 15:42:32;;;;;;;12.38;2.67;;;;;;;;;;4987905;28;21267;-66
2024/02/08 15:44:59;;;;;;;7.53;2.05;;;;;;;;;;4987334;28;20133;-66
2024/02/08 15:47:28;;;;;;;8.90;3.15;;;;;;;;;;4993679;28;20042;-66
2024/02/08 15:49:55;;;;;;;9.02;2.88;;;;;;;;;;4980094;28;20046;-66
2024/02/08 15:52:22;;;;;;;10.88;2.72;;;;;;;;;;5000959;28;20053;-66
2024/02/08 15:54:55;;;;;;;8.50;2.85;;;;;;;;;;5009182;28;20042;-66
2024/02/08 15:57:29;;;;;;;7.57;1.95;;;;;;;;;;5007736;28;20449;-65
2024/02/08 15:59:59;;;;;;;9.07;2.40;;;;;;;;;;5001616;28;20042;-66
2024/02/08 16:02:26;;;;;;;9.65;2.47;;;;;;;;;;4988678;28;20528;-66
2024/02/08 16:04:52;;;;;;;8.98;1.70;;;;;;;;;;4999851;28;20046;-68
2024/02/08 16:07:27;;;;;;;24.95;16.25;;;;;;;;;;4971617;28;20049;-66
2024/02/08 16:09:57;;;;;;;13.10;5.82;;;;;;;;;;5000140;28;20128;-66
2024/02/08 16:12:24;;;;;;;13.95;5.22;;;;;;;;;;4987546;28;20053;-66
2024/02/08 16:14:59;;;;;;;9.68;3.88;;;;;;;;;;4987703;28;20071;-66
2024/02/08 16:20:08;;;;;;;6.60;2.58;;;;;;;;;;4983720;28;20117;-66
2024/02/08 16:22:47;;;;;;;10.75;2.83;;;;;;;;;;4982728;28;20081;-66
2024/02/08 16:25:17;;;;;;;6.55;2.25;;;;;;;;;;4966660;28;20038;-66
2024/02/08 16:27:48;;;;;;;7.15;2.63;;;;;;;;;;5003041;28;20472;-66
2024/02/08 16:30:28;;;;;;;10.77;4.22;;;;;;;;;;4990631;28;20441;-66
2024/02/08 16:32:55;;;;;;;7.25;2.65;;;;;;;;;;4987691;28;20520;-67
2024/02/08 16:35:32;;;;;;;8.10;3.53;;;;;;;;;;4981769;28;20148;-66
2024/02/08 16:38:09;;;;;;;13.93;6.20;;;;;;;;;;5000263;28;20121;-66
2024/02/08 16:40:43;;;;;;;32.00;16.05;;;;;;;;;;4987189;28;20494;-66
2024/02/08 16:43:12;;;;;;;19.13;8.57;;;;;;;;;;4975023;28;20053;-66
2024/02/08 16:45:55;;;;;;;29.77;21.55;;;;;;;;;;4985807;28;20058;-66
2024/02/08 16:48:36;;;;;;;13.95;5.55;;;;;;;;;;4986190;28;20073;-66
2024/02/08 16:51:16;;;;;;;10.65;5.13;;;;;;;;;;4988672;28;20046;-65
2024/02/08 16:53:49;;;;;;;11.98;5.35;;;;;;;;;;4987420;28;20045;-67
2024/02/08 16:56:16;;;;;;;13.80;7.60;;;;;;;;;;4988617;28;20107;-66